APL New York — 9V9916 — position and weather

sailwx.info

Track history (hours):
 
Tides and Currents Weather Stations Pressure Air Temp Water Temp Dewpoint Dewpoint Depression Visibility Wind Speed Wind Dir Waves Ship Positions

APL New York

Last reported at 2017-Sep-19 11:21 UTC. Time now 2017-Sep-20 22:01 UTC.
Position N 38°12' W 124°26'.

Length 328 m; draft 13 m.

Type: Ship (hazmat cat A). MMSI: 566879000.

Date/timePositionNaut miles runAvg speedWind from/ knotsBaromVisibWave heightAir tempDewpointWater temp
2017-Sep-19 11:21N 38°12' W 124°26'816.5
2017-Sep-19 10:53N 38°12' W 124°16'616.4
2017-Sep-19 10:30N 38°12' W 124°08'916.8
2017-Sep-19 09:59N 38°11' W 123°57'816.7
2017-Sep-19 09:30N 38°11' W 123°46'816.8
2017-Sep-19 09:00N 38°11' W 123°36'816.5
2017-Sep-19 08:30N 38°10' W 123°25'510.9
2017-Sep-19 08:00N 38°08' W 123°19'5 9.8
2017-Sep-19 07:30N 38°04' W 123°15'5 9.9
2017-Sep-19 07:00N 38°01' W 123°11'5 9.8
2017-Sep-19 06:30N 37°58' W 123°06'510.0
2017-Sep-19 06:00N 37°55' W 123°00'510.0
2017-Sep-19 05:30N 37°53' W 122°55'5 9.9
2017-Sep-19 05:00N 37°50' W 122°50'5 9.8
2017-Sep-19 04:30N 37°47' W 122°44'4 7.7
2017-Sep-19 04:00N 37°46' W 122°40'815.1
2017-Sep-19 03:30N 37°48' W 122°31'612.2
2017-Sep-19 03:00N 37°49' W 122°23'2 4.2
2017-Sep-19 02:30N 37°48' W 122°20'0 0.0
2017-Sep-19 01:59N 37°48' W 122°20'0 0.0
2017-Sep-19 01:29N 37°48' W 122°20'0 0.0
2017-Sep-19 00:59N 37°48' W 122°20'0 0.0
2017-Sep-19 00:29N 37°48' W 122°20'0 0.0
2017-Sep-18 23:59N 37°48' W 122°20'0 0.0
2017-Sep-18 23:29N 37°48' W 122°20'0 0.0
2017-Sep-18 22:59N 37°48' W 122°20'0 0.0
2017-Sep-18 22:29N 37°48' W 122°20'0 0.0
2017-Sep-18 21:59N 37°48' W 122°20'0 0.0
2017-Sep-18 21:29N 37°48' W 122°20'0 0.0
2017-Sep-18 20:59N 37°48' W 122°20'0 0.0
2017-Sep-18 20:29N 37°48' W 122°20'0 0.0
2017-Sep-18 19:59N 37°48' W 122°20'0 0.0
2017-Sep-18 19:29N 37°48' W 122°20'0 0.0
2017-Sep-18 18:56N 37°48' W 122°20'0 0.0
2017-Sep-18 18:29N 37°48' W 122°20'0 0.0
2017-Sep-18 17:59N 37°48' W 122°20'0 0.0
2017-Sep-18 17:29N 37°48' W 122°20'0 0.0
2017-Sep-18 16:59N 37°48' W 122°20'0 0.0
2017-Sep-18 16:29N 37°48' W 122°20'0 0.0
2017-Sep-18 15:59N 37°48' W 122°20'0 0.0
2017-Sep-18 15:29N 37°48' W 122°20'0 0.0
2017-Sep-18 14:59N 37°48' W 122°20'0 0.0
2017-Sep-18 14:29N 37°48' W 122°20'0 0.0
2017-Sep-18 13:59N 37°48' W 122°20'0 0.0
2017-Sep-18 13:29N 37°48' W 122°20'0 0.0
2017-Sep-18 12:59N 37°48' W 122°20'0 0.0
2017-Sep-18 12:29N 37°48' W 122°20'0 0.0
2017-Sep-18 11:59N 37°48' W 122°20'0 0.0
2017-Sep-18 11:29N 37°48' W 122°20'0 0.0
2017-Sep-18 10:59N 37°48' W 122°20'0 0.0
2017-Sep-18 10:29N 37°48' W 122°20'0 0.0
2017-Sep-18 09:59N 37°48' W 122°20'0 0.0
2017-Sep-18 09:29N 37°48' W 122°20'0 0.0
2017-Sep-18 08:59N 37°48' W 122°20'0 0.0
2017-Sep-18 08:29N 37°48' W 122°20'0 0.0
2017-Sep-18 07:59N 37°48' W 122°20'0 0.0
2017-Sep-18 07:29N 37°48' W 122°20'0 0.0
2017-Sep-18 06:59N 37°48' W 122°20'0 0.0
2017-Sep-18 06:29N 37°48' W 122°20'0 0.0
2017-Sep-18 05:59N 37°48' W 122°20'0 0.0
2017-Sep-18 05:29N 37°48' W 122°20'0 0.0
2017-Sep-18 04:59N 37°48' W 122°20'0 0.0
2017-Sep-18 04:29N 37°48' W 122°20'0 0.0
2017-Sep-18 03:59N 37°48' W 122°20'0 0.0
2017-Sep-18 03:29N 37°48' W 122°20'0 0.0
2017-Sep-18 02:59N 37°48' W 122°20'0 0.0
2017-Sep-18 02:29N 37°48' W 122°20'0 0.0
2017-Sep-18 01:59N 37°48' W 122°20'0 0.0
2017-Sep-18 01:29N 37°48' W 122°20'0 0.0
2017-Sep-18 00:59N 37°48' W 122°20'0 0.0
2017-Sep-18 00:29N 37°48' W 122°20'0 0.0
2017-Sep-17 23:59N 37°48' W 122°20'0 0.0
2017-Sep-17 23:29N 37°48' W 122°20'0 0.0
2017-Sep-17 22:59N 37°48' W 122°20'0 0.0
2017-Sep-17 22:26N 37°48' W 122°20'0 0.0
2017-Sep-17 21:59N 37°48' W 122°20'0 0.0
2017-Sep-17 21:29N 37°48' W 122°20'0 0.0
2017-Sep-17 20:59N 37°48' W 122°20'0 0.0
2017-Sep-17 20:29N 37°48' W 122°20'0 0.0
2017-Sep-17 19:56N 37°48' W 122°20'0 0.0
2017-Sep-17 19:29N 37°48' W 122°20'0 0.0
2017-Sep-17 18:59N 37°48' W 122°20'0 0.0
2017-Sep-17 18:29N 37°48' W 122°20'0 0.0
2017-Sep-17 17:59N 37°48' W 122°20'0 0.0
2017-Sep-17 17:29N 37°48' W 122°20'0 0.0
2017-Sep-17 16:59N 37°48' W 122°20'0 0.0
2017-Sep-17 16:29N 37°48' W 122°20'0 0.0
2017-Sep-17 15:59N 37°48' W 122°20'0 0.0
2017-Sep-17 15:29N 37°48' W 122°20'0 0.0
2017-Sep-17 14:59N 37°48' W 122°20'0 0.0
2017-Sep-17 14:29N 37°48' W 122°20'0 0.0
2017-Sep-17 13:59N 37°48' W 122°20'0 0.0
2017-Sep-17 13:29N 37°48' W 122°20'0 0.2
2017-Sep-17 13:01N 37°49' W 122°20'0 0.9
2017-Sep-17 12:31N 37°49' W 122°20'3 6.5
2017-Sep-17 12:01N 37°49' W 122°24'713.7
2017-Sep-17 11:30N 37°47' W 122°32'815.2
2017-Sep-17 11:00N 37°45' W 122°41'4 8.1
2017-Sep-17 10:31N 37°41' W 122°40'3 6.2
2017-Sep-17 10:00N 37°38' W 122°40'5 9.6
2017-Sep-17 09:31N 37°33' W 122°40'5 9.5
2017-Sep-17 09:00N 37°28' W 122°40'5 9.5
2017-Sep-17 08:30N 37°23' W 122°40'5 9.5
2017-Sep-17 08:00N 37°18' W 122°40'510.6
2017-Sep-17 07:30N 37°13' W 122°39'612.0
2017-Sep-17 07:01N 37°07' W 122°38'611.8
2017-Sep-17 06:30N 37°02' W 122°35'612.0
2017-Sep-17 06:00N 36°56' W 122°32'611.7
2017-Sep-17 05:30N 36°51' W 122°29'611.7
2017-Sep-17 05:00N 36°46' W 122°26'612.2
2017-Sep-17 04:30N 36°40' W 122°23'612.3
2017-Sep-17 04:00N 36°34' W 122°21'612.3
2017-Sep-17 03:30N 36°28' W 122°18'612.3
2017-Sep-17 03:00N 36°23' W 122°14'612.2
2017-Sep-17 02:30N 36°17' W 122°11'612.2
2017-Sep-17 02:00N 36°12' W 122°08'612.4
2017-Sep-17 01:30N 36°06' W 122°05'1512.0
2017-Sep-17 00:16N 35°53' W 121°56'312.1
2017-Sep-17 00:00N 35°50' W 121°54'1112.4
2017-Sep-16 23:09N 35°41' W 121°49'212.4
2017-Sep-16 23:00N 35°39' W 121°48'612.2
2017-Sep-16 22:29N 35°33' W 121°44'612.2
2017-Sep-16 22:00N 35°28' W 121°41'612.2
2017-Sep-16 21:30N 35°23' W 121°38'612.1
2017-Sep-16 21:00N 35°17' W 121°34'612.2
2017-Sep-16 20:30N 35°12' W 121°31'612.2
2017-Sep-16 20:00N 35°07' W 121°27'612.4
2017-Sep-16 19:30N 35°01' W 121°24'612.4
2017-Sep-16 19:00N 34°55' W 121°20'612.2
2017-Sep-16 18:30N 34°50' W 121°17'612.1
2017-Sep-16 18:00N 34°44' W 121°14'612.3
2017-Sep-16 17:30N 34°39' W 121°11'612.3
2017-Sep-16 17:00N 34°34' W 121°07'612.4
2017-Sep-16 16:30N 34°29' W 121°02'612.4
2017-Sep-16 16:00N 34°28' W 120°54'510.0
2017-Sep-16 15:30N 34°26' W 120°49'5 9.5
2017-Sep-16 14:59N 34°25' W 120°43'5 9.5
2017-Sep-16 14:29N 34°23' W 120°37'5 9.7
2017-Sep-16 14:00N 34°22' W 120°32'5 9.7
2017-Sep-16 13:30N 34°21' W 120°26'5 9.6
2017-Sep-16 13:00N 34°19' W 120°21'5 9.9
2017-Sep-16 12:30N 34°18' W 120°15'5 9.6
2017-Sep-16 12:00N 34°17' W 120°09'5 9.7
2017-Sep-16 11:30N 34°16' W 120°04'5 9.7
2017-Sep-16 11:00N 34°14' W 119°58'510.0
2017-Sep-16 10:30N 34°13' W 119°52'5 9.8
2017-Sep-16 10:00N 34°12' W 119°47'510.2
2017-Sep-16 09:29N 34°10' W 119°40'5 9.7
2017-Sep-16 09:00N 34°09' W 119°35'5 9.7
2017-Sep-16 08:30N 34°08' W 119°29'5 9.6
2017-Sep-16 08:00N 34°06' W 119°24'611.5
2017-Sep-16 07:30N 34°05' W 119°17'611.4
2017-Sep-16 07:00N 34°02' W 119°11'611.6
2017-Sep-16 06:30N 33°59' W 119°05'611.3
2017-Sep-16 05:59N 33°56' W 118°59'611.4
2017-Sep-16 05:30N 33°54' W 118°53'611.6
2017-Sep-16 05:00N 33°51' W 118°47'611.8
2017-Sep-16 04:27N 33°47' W 118°40'511.7
2017-Sep-16 04:00N 33°45' W 118°35'611.8
2017-Sep-16 03:30N 33°42' W 118°28'611.7
2017-Sep-16 03:00N 33°39' W 118°22'510.0
2017-Sep-16 02:30N 33°39' W 118°16'4 7.3
2017-Sep-16 02:00N 33°43' W 118°16'2 3.3
2017-Sep-16 01:30N 33°45' W 118°16'0 0.0
2017-Sep-16 00:56N 33°45' W 118°16'0 0.0
2017-Sep-16 00:20N 33°45' W 118°16'0 0.0
2017-Sep-15 23:56N 33°45' W 118°16'0 0.0
2017-Sep-15 23:26N 33°45' W 118°16'0 0.0
2017-Sep-15 22:50N 33°45' W 118°16'0 0.0
2017-Sep-15 22:14N 33°45' W 118°16'0 0.0
2017-Sep-15 21:56N 33°45' W 118°16'0 0.0
2017-Sep-15 21:26N 33°45' W 118°16'0 0.0
2017-Sep-15 20:56N 33°45' W 118°16'0 0.0
2017-Sep-15 20:20N 33°45' W 118°16'0 0.0
2017-Sep-15 19:44N 33°45' W 118°16'0 0.0
2017-Sep-15 19:26N 33°45' W 118°16'0 0.0
2017-Sep-15 18:56N 33°45' W 118°16'0 0.0
2017-Sep-15 18:26N 33°45' W 118°16'0 0.0
2017-Sep-15 17:56N 33°45' W 118°16'0 0.0
2017-Sep-15 17:26N 33°45' W 118°16'0 0.0
2017-Sep-15 16:38N 33°45' W 118°16'0 0.0
2017-Sep-15 16:26N 33°45' W 118°16'0 0.0
2017-Sep-15 15:56N 33°45' W 118°16'0 0.0
2017-Sep-15 15:08N 33°45' W 118°16'0 0.0
2017-Sep-15 14:38N 33°45' W 118°16'0 0.0
2017-Sep-15 14:26N 33°45' W 118°16'0 0.0
2017-Sep-15 13:56N 33°45' W 118°16'0 0.0
2017-Sep-15 13:26N 33°45' W 118°16'0 0.0
2017-Sep-15 12:56N 33°45' W 118°16'0 0.0
2017-Sep-15 11:56N 33°45' W 118°16'0 0.0
2017-Sep-15 11:26N 33°45' W 118°16'0 0.0
2017-Sep-15 10:44N 33°45' W 118°16'0 0.0
2017-Sep-15 10:20N 33°45' W 118°16'0 0.0
2017-Sep-15 09:50N 33°45' W 118°16'0 0.0
2017-Sep-15 09:26N 33°45' W 118°16'0 0.0
2017-Sep-15 08:56N 33°45' W 118°16'0 0.0
2017-Sep-15 08:26N 33°45' W 118°16'0 0.0
2017-Sep-15 07:56N 33°45' W 118°16'0 0.0
2017-Sep-15 07:26N 33°45' W 118°16'0 0.0
2017-Sep-15 06:56N 33°45' W 118°16'0 0.0
2017-Sep-15 06:26N 33°45' W 118°16'0 0.0
2017-Sep-15 05:50N 33°45' W 118°16'0 0.0
2017-Sep-15 05:26N 33°45' W 118°16'0 0.0
2017-Sep-15 04:56N 33°45' W 118°16'0 0.0
2017-Sep-15 04:26N 33°45' W 118°16'0 0.0
2017-Sep-15 03:56N 33°45' W 118°16'0 0.0
2017-Sep-15 03:26N 33°45' W 118°16'0 0.0
2017-Sep-15 02:56N 33°45' W 118°16'0 0.0
2017-Sep-15 02:26N 33°45' W 118°16'0 0.0
2017-Sep-15 01:56N 33°45' W 118°16'0 0.0
2017-Sep-15 01:26N 33°45' W 118°16'0 0.0
2017-Sep-15 00:56N 33°45' W 118°16'0 0.0
2017-Sep-15 00:26N 33°45' W 118°16'0 0.0
2017-Sep-14 23:56N 33°45' W 118°16'0 0.0
2017-Sep-14 23:20N 33°45' W 118°16'0 0.0
2017-Sep-14 22:56N 33°45' W 118°16'0 0.0
2017-Sep-14 22:14N 33°45' W 118°16'0 0.0
2017-Sep-14 21:50N 33°45' W 118°16'0 0.0
2017-Sep-14 21:26N 33°45' W 118°16'0 0.0
2017-Sep-14 20:44N 33°45' W 118°16'0 0.0
2017-Sep-14 20:26N 33°45' W 118°16'0 0.0
2017-Sep-14 19:56N 33°45' W 118°16'0 0.0
2017-Sep-14 19:26N 33°45' W 118°16'0 0.0
2017-Sep-14 18:56N 33°45' W 118°16'0 0.0
2017-Sep-14 18:26N 33°45' W 118°16'0 0.0
2017-Sep-14 17:56N 33°45' W 118°16'0 0.0
2017-Sep-14 17:20N 33°45' W 118°16'0 0.0
2017-Sep-14 16:56N 33°45' W 118°16'0 0.0
2017-Sep-14 16:26N 33°45' W 118°16'0 0.0
2017-Sep-14 15:56N 33°45' W 118°16'0 0.0
2017-Sep-14 15:26N 33°45' W 118°16'0 0.0
2017-Sep-14 14:56N 33°45' W 118°16'0 0.0
2017-Sep-14 14:26N 33°45' W 118°16'0 0.0
2017-Sep-14 13:47N 33°45' W 118°16'0 0.0
2017-Sep-14 13:29N 33°45' W 118°16'0 0.0
2017-Sep-14 12:59N 33°45' W 118°16'0 0.0
2017-Sep-14 12:17N 33°45' W 118°16'0 0.0
2017-Sep-14 11:47N 33°45' W 118°16'0 0.0
2017-Sep-14 11:26N 33°45' W 118°16'0 0.0
2017-Sep-14 10:50N 33°45' W 118°16'0 0.0
2017-Sep-14 10:20N 33°45' W 118°16'0 0.0
2017-Sep-14 09:50N 33°45' W 118°16'0 0.0
2017-Sep-14 09:26N 33°45' W 118°16'0 0.0
2017-Sep-14 08:50N 33°45' W 118°16'0 0.0
2017-Sep-14 08:26N 33°45' W 118°16'0 0.0
2017-Sep-14 07:56N 33°45' W 118°16'0 0.0
2017-Sep-14 07:26N 33°45' W 118°16'0 0.0
2017-Sep-14 06:56N 33°45' W 118°16'0 0.0
2017-Sep-14 06:20N 33°45' W 118°16'0 0.0
2017-Sep-14 05:50N 33°45' W 118°16'0 0.0
2017-Sep-14 05:29N 33°45' W 118°16'0 0.0
2017-Sep-14 04:50N 33°45' W 118°16'0 0.0
2017-Sep-14 04:26N 33°45' W 118°16'0 0.0
2017-Sep-14 03:56N 33°45' W 118°16'0 0.0
2017-Sep-14 03:23N 33°45' W 118°16'0 0.0
2017-Sep-14 02:59N 33°45' W 118°16'0 0.0
2017-Sep-14 02:26N 33°45' W 118°16'0 0.0
2017-Sep-14 01:56N 33°45' W 118°16'0 0.0
2017-Sep-14 01:26N 33°45' W 118°16'0 0.0
2017-Sep-14 00:56N 33°45' W 118°16'0 0.0
2017-Sep-14 00:26N 33°45' W 118°16'0 0.0
2017-Sep-13 23:56N 33°45' W 118°16'0 0.0
2017-Sep-13 23:14N 33°45' W 118°16'0 0.0
2017-Sep-13 22:56N 33°45' W 118°16'0 0.0
2017-Sep-13 22:20N 33°45' W 118°16'0 0.0
2017-Sep-13 21:56N 33°45' W 118°16'0 0.0
2017-Sep-13 21:26N 33°45' W 118°16'0 0.0
2017-Sep-13 20:56N 33°45' W 118°16'0 0.0
2017-Sep-13 20:26N 33°45' W 118°16'0 0.0
2017-Sep-13 19:59N 33°45' W 118°16'0 0.0
2017-Sep-13 19:26N 33°45' W 118°16'0 0.0
2017-Sep-13 18:50N 33°45' W 118°16'0 0.0
2017-Sep-13 18:26N 33°45' W 118°16'0 0.0
2017-Sep-13 17:50N 33°45' W 118°16'0 0.0
2017-Sep-13 17:26N 33°45' W 118°16'0 0.0
2017-Sep-13 16:44N 33°45' W 118°16'0 0.0
2017-Sep-13 15:56N 33°45' W 118°16'0 0.0
2017-Sep-13 15:14N 33°45' W 118°16'0 0.0
2017-Sep-13 14:59N 33°45' W 118°16'0 0.0
2017-Sep-13 14:26N 33°45' W 118°16'0 0.0
2017-Sep-13 13:53N 33°45' W 118°16'0 0.0
2017-Sep-13 13:26N 33°45' W 118°16'0 0.0
2017-Sep-13 12:56N 33°45' W 118°16'0 0.0
2017-Sep-13 12:29N 33°45' W 118°16'0 0.0
2017-Sep-13 11:59N 33°45' W 118°16'0 0.0
2017-Sep-13 11:26N 33°45' W 118°16'0 0.0
2017-Sep-13 10:50N 33°45' W 118°16'0 0.0
2017-Sep-13 10:29N 33°45' W 118°16'0 0.0
2017-Sep-13 09:56N 33°45' W 118°16'0 0.0
2017-Sep-13 09:26N 33°45' W 118°16'0 0.0
2017-Sep-13 08:56N 33°45' W 118°16'0 0.0
2017-Sep-13 08:14N 33°45' W 118°16'0 0.0
2017-Sep-13 07:56N 33°45' W 118°16'0 0.0
2017-Sep-13 07:29N 33°45' W 118°16'0 0.0
2017-Sep-13 06:56N 33°45' W 118°16'0 0.0
2017-Sep-13 06:26N 33°45' W 118°16'0 0.0
2017-Sep-13 05:56N 33°45' W 118°16'0 0.0
2017-Sep-13 05:26N 33°45' W 118°16'0 0.0
2017-Sep-13 04:59N 33°45' W 118°16'0 0.0
2017-Sep-13 04:20N 33°45' W 118°16'0 0.0
2017-Sep-13 03:59N 33°45' W 118°16'0 0.0
2017-Sep-13 03:26N 33°45' W 118°16'0 0.0
2017-Sep-13 02:59N 33°45' W 118°16'0 0.0
2017-Sep-13 02:26N 33°45' W 118°16'0 0.0
2017-Sep-13 01:59N 33°45' W 118°16'0 0.0
2017-Sep-13 01:29N 33°45' W 118°16'0 0.0
2017-Sep-13 00:59N 33°45' W 118°16'0 0.0
2017-Sep-13 00:29N 33°45' W 118°16'0 0.0
2017-Sep-12 23:59N 33°45' W 118°16'0 0.0
2017-Sep-12 23:29N 33°45' W 118°16'0 0.0
2017-Sep-12 22:59N 33°45' W 118°16'0 0.0
2017-Sep-12 22:29N 33°45' W 118°16'0 0.0
2017-Sep-12 21:59N 33°45' W 118°16'0 0.0
2017-Sep-12 21:26N 33°45' W 118°16'0 0.0
2017-Sep-12 20:56N 33°45' W 118°16'0 0.0
2017-Sep-12 20:26N 33°45' W 118°16'0 0.0
2017-Sep-12 19:59N 33°45' W 118°16'0 0.0
2017-Sep-12 19:26N 33°45' W 118°16'0 0.0
2017-Sep-12 18:59N 33°45' W 118°16'0 0.0
2017-Sep-12 18:26N 33°45' W 118°16'0 0.0
2017-Sep-12 17:44N 33°45' W 118°16'0 0.0
2017-Sep-12 17:14N 33°45' W 118°16'0 0.0
2017-Sep-12 16:56N 33°45' W 118°16'0 0.0
2017-Sep-12 16:29N 33°45' W 118°16'0 0.0
2017-Sep-12 15:59N 33°45' W 118°16'0 0.0
2017-Sep-12 15:29N 33°45' W 118°16'0 0.0
2017-Sep-12 14:59N 33°45' W 118°16'0 0.0
2017-Sep-12 14:29N 33°45' W 118°16'0 0.0
2017-Sep-12 13:59N 33°45' W 118°16'0 0.0
2017-Sep-12 13:30N 33°45' W 118°16'0 0.2
2017-Sep-12 13:00N 33°45' W 118°16'0 0.2
2017-Sep-12 12:30N 33°45' W 118°16'1 2.3
2017-Sep-12 12:00N 33°44' W 118°16'0 0.1
2017-Sep-12 11:30N 33°44' W 118°16'3 5.6
2017-Sep-12 11:00N 33°41' W 118°14'4 7.6
2017-Sep-12 10:30N 33°37' W 118°15'3 6.7
2017-Sep-12 10:00N 33°36' W 118°18'510.3
2017-Sep-12 09:30N 33°36' W 118°25'510.6
2017-Sep-12 09:00N 33°36' W 118°31'510.3
2017-Sep-12 08:30N 33°36' W 118°37'510.5
2017-Sep-12 08:00N 33°36' W 118°43'610.8
2017-Sep-12 07:29N 33°36' W 118°50'510.5
2017-Sep-12 07:00N 33°36' W 118°56'510.5
2017-Sep-12 06:30N 33°37' W 119°03'510.8
2017-Sep-12 06:00N 33°37' W 119°09'816.0
2017-Sep-12 05:30N 33°37' W 119°19'816.1
2017-Sep-12 05:01N 33°37' W 119°28'816.5
2017-Sep-12 04:31N 33°37' W 119°38'816.5
2017-Sep-12 04:00N 33°37' W 119°48'816.5
2017-Sep-12 03:30N 33°37' W 119°58'816.8
2017-Sep-12 03:00N 33°38' W 120°08'816.4
2017-Sep-12 02:31N 33°39' W 120°18'816.5
2017-Sep-12 02:01N 33°39' W 120°28'816.8
2017-Sep-12 01:31N 33°39' W 120°38'816.5
2017-Sep-12 01:00N 33°39' W 120°48'816.8
2017-Sep-12 00:30N 33°39' W 120°58'816.5
2017-Sep-12 00:00N 33°39' W 121°08'2 4.3
2017-Sep-11 23:26N 33°38' W 121°10'1 2.5
2017-Sep-11 23:01N 33°37' W 121°11'510.9
2017-Sep-11 22:30N 33°37' W 121°18'815.5
2017-Sep-11 22:00N 33°37' W 121°27'815.5
2017-Sep-11 21:30N 33°37' W 121°36'815.5
2017-Sep-11 21:00N 33°37' W 121°46'815.6
2017-Sep-11 20:30N 33°37' W 121°55'815.6
2017-Sep-11 20:00N 33°37' W 122°05'815.7
2017-Sep-11 19:30N 33°36' W 122°14'815.7
2017-Sep-11 19:00N 33°36' W 122°23'25217.5
2017-Sep-11 04:36N 34°31' W 127°20'219.4
2017-Sep-11 04:29N 34°32' W 127°22'1119.1
2017-Sep-11 03:56N 34°35' W 127°34'818.9
2017-Sep-11 03:30N 34°38' W 127°43'918.9
2017-Sep-11 03:00N 34°41' W 127°54'1019.0
2017-Sep-11 02:30N 34°45' W 128°05'  
Track history (hours):
 
Tides and Currents Weather Stations Pressure Air Temp Water Temp Dewpoint Dewpoint Depression Visibility Wind Speed Wind Dir Waves Ship Positions

APL New York

Last reported at 2017-Sep-19 11:21 UTC. Time now 2017-Sep-20 22:01 UTC.
Position N 38°12' W 124°26'.

Length 328 m; draft 13 m.

Type: Ship (hazmat cat A). MMSI: 566879000.

Date/timePositionNaut miles runAvg speedWind from/ knotsBaromVisibWave heightAir tempDewpointWater temp
2017-Sep-19 11:21N 38°12' W 124°26'816.5
2017-Sep-19 10:53N 38°12' W 124°16'616.4
2017-Sep-19 10:30N 38°12' W 124°08'916.8
2017-Sep-19 09:59N 38°11' W 123°57'816.7
2017-Sep-19 09:30N 38°11' W 123°46'816.8
2017-Sep-19 09:00N 38°11' W 123°36'816.5
2017-Sep-19 08:30N 38°10' W 123°25'510.9
2017-Sep-19 08:00N 38°08' W 123°19'5 9.8
2017-Sep-19 07:30N 38°04' W 123°15'5 9.9
2017-Sep-19 07:00N 38°01' W 123°11'5 9.8
2017-Sep-19 06:30N 37°58' W 123°06'510.0
2017-Sep-19 06:00N 37°55' W 123°00'510.0
2017-Sep-19 05:30N 37°53' W 122°55'5 9.9
2017-Sep-19 05:00N 37°50' W 122°50'5 9.8
2017-Sep-19 04:30N 37°47' W 122°44'4 7.7
2017-Sep-19 04:00N 37°46' W 122°40'815.1
2017-Sep-19 03:30N 37°48' W 122°31'612.2
2017-Sep-19 03:00N 37°49' W 122°23'2 4.2
2017-Sep-19 02:30N 37°48' W 122°20'0 0.0
2017-Sep-19 01:59N 37°48' W 122°20'0 0.0
2017-Sep-19 01:29N 37°48' W 122°20'0 0.0
2017-Sep-19 00:59N 37°48' W 122°20'0 0.0
2017-Sep-19 00:29N 37°48' W 122°20'0 0.0
2017-Sep-18 23:59N 37°48' W 122°20'0 0.0
2017-Sep-18 23:29N 37°48' W 122°20'0 0.0
2017-Sep-18 22:59N 37°48' W 122°20'0 0.0
2017-Sep-18 22:29N 37°48' W 122°20'0 0.0
2017-Sep-18 21:59N 37°48' W 122°20'0 0.0
2017-Sep-18 21:29N 37°48' W 122°20'0 0.0
2017-Sep-18 20:59N 37°48' W 122°20'0 0.0
2017-Sep-18 20:29N 37°48' W 122°20'0 0.0
2017-Sep-18 19:59N 37°48' W 122°20'0 0.0
2017-Sep-18 19:29N 37°48' W 122°20'0 0.0
2017-Sep-18 18:56N 37°48' W 122°20'0 0.0
2017-Sep-18 18:29N 37°48' W 122°20'0 0.0
2017-Sep-18 17:59N 37°48' W 122°20'0 0.0
2017-Sep-18 17:29N 37°48' W 122°20'0 0.0
2017-Sep-18 16:59N 37°48' W 122°20'0 0.0
2017-Sep-18 16:29N 37°48' W 122°20'0 0.0
2017-Sep-18 15:59N 37°48' W 122°20'0 0.0
2017-Sep-18 15:29N 37°48' W 122°20'0 0.0
2017-Sep-18 14:59N 37°48' W 122°20'0 0.0
2017-Sep-18 14:29N 37°48' W 122°20'0 0.0
2017-Sep-18 13:59N 37°48' W 122°20'0 0.0
2017-Sep-18 13:29N 37°48' W 122°20'0 0.0
2017-Sep-18 12:59N 37°48' W 122°20'0 0.0
2017-Sep-18 12:29N 37°48' W 122°20'0 0.0
2017-Sep-18 11:59N 37°48' W 122°20'0 0.0
2017-Sep-18 11:29N 37°48' W 122°20'0 0.0
2017-Sep-18 10:59N 37°48' W 122°20'0 0.0
2017-Sep-18 10:29N 37°48' W 122°20'0 0.0
2017-Sep-18 09:59N 37°48' W 122°20'0 0.0
2017-Sep-18 09:29N 37°48' W 122°20'0 0.0
2017-Sep-18 08:59N 37°48' W 122°20'0 0.0
2017-Sep-18 08:29N 37°48' W 122°20'0 0.0
2017-Sep-18 07:59N 37°48' W 122°20'0 0.0
2017-Sep-18 07:29N 37°48' W 122°20'0 0.0
2017-Sep-18 06:59N 37°48' W 122°20'0 0.0
2017-Sep-18 06:29N 37°48' W 122°20'0 0.0
2017-Sep-18 05:59N 37°48' W 122°20'0 0.0
2017-Sep-18 05:29N 37°48' W 122°20'0 0.0
2017-Sep-18 04:59N 37°48' W 122°20'0 0.0
2017-Sep-18 04:29N 37°48' W 122°20'0 0.0
2017-Sep-18 03:59N 37°48' W 122°20'0 0.0
2017-Sep-18 03:29N 37°48' W 122°20'0 0.0
2017-Sep-18 02:59N 37°48' W 122°20'0 0.0
2017-Sep-18 02:29N 37°48' W 122°20'0 0.0
2017-Sep-18 01:59N 37°48' W 122°20'0 0.0
2017-Sep-18 01:29N 37°48' W 122°20'0 0.0
2017-Sep-18 00:59N 37°48' W 122°20'0 0.0
2017-Sep-18 00:29N 37°48' W 122°20'0 0.0
2017-Sep-17 23:59N 37°48' W 122°20'0 0.0
2017-Sep-17 23:29N 37°48' W 122°20'0 0.0
2017-Sep-17 22:59N 37°48' W 122°20'0 0.0
2017-Sep-17 22:26N 37°48' W 122°20'0 0.0
2017-Sep-17 21:59N 37°48' W 122°20'0 0.0
2017-Sep-17 21:29N 37°48' W 122°20'0 0.0
2017-Sep-17 20:59N 37°48' W 122°20'0 0.0
2017-Sep-17 20:29N 37°48' W 122°20'0 0.0
2017-Sep-17 19:56N 37°48' W 122°20'0 0.0
2017-Sep-17 19:29N 37°48' W 122°20'0 0.0
2017-Sep-17 18:59N 37°48' W 122°20'0 0.0
2017-Sep-17 18:29N 37°48' W 122°20'0 0.0
2017-Sep-17 17:59N 37°48' W 122°20'0 0.0
2017-Sep-17 17:29N 37°48' W 122°20'0 0.0
2017-Sep-17 16:59N 37°48' W 122°20'0 0.0
2017-Sep-17 16:29N 37°48' W 122°20'0 0.0
2017-Sep-17 15:59N 37°48' W 122°20'0 0.0
2017-Sep-17 15:29N 37°48' W 122°20'0 0.0
2017-Sep-17 14:59N 37°48' W 122°20'0 0.0
2017-Sep-17 14:29N 37°48' W 122°20'0 0.0
2017-Sep-17 13:59N 37°48' W 122°20'0 0.0
2017-Sep-17 13:29N 37°48' W 122°20'0 0.2
2017-Sep-17 13:01N 37°49' W 122°20'0 0.9
2017-Sep-17 12:31N 37°49' W 122°20'3 6.5
2017-Sep-17 12:01N 37°49' W 122°24'713.7
2017-Sep-17 11:30N 37°47' W 122°32'815.2
2017-Sep-17 11:00N 37°45' W 122°41'4 8.1
2017-Sep-17 10:31N 37°41' W 122°40'3 6.2
2017-Sep-17 10:00N 37°38' W 122°40'5 9.6
2017-Sep-17 09:31N 37°33' W 122°40'5 9.5
2017-Sep-17 09:00N 37°28' W 122°40'5 9.5
2017-Sep-17 08:30N 37°23' W 122°40'5 9.5
2017-Sep-17 08:00N 37°18' W 122°40'510.6
2017-Sep-17 07:30N 37°13' W 122°39'612.0
2017-Sep-17 07:01N 37°07' W 122°38'611.8
2017-Sep-17 06:30N 37°02' W 122°35'612.0
2017-Sep-17 06:00N 36°56' W 122°32'611.7
2017-Sep-17 05:30N 36°51' W 122°29'611.7
2017-Sep-17 05:00N 36°46' W 122°26'612.2
2017-Sep-17 04:30N 36°40' W 122°23'612.3
2017-Sep-17 04:00N 36°34' W 122°21'612.3
2017-Sep-17 03:30N 36°28' W 122°18'612.3
2017-Sep-17 03:00N 36°23' W 122°14'612.2
2017-Sep-17 02:30N 36°17' W 122°11'612.2
2017-Sep-17 02:00N 36°12' W 122°08'612.4
2017-Sep-17 01:30N 36°06' W 122°05'1512.0
2017-Sep-17 00:16N 35°53' W 121°56'312.1
2017-Sep-17 00:00N 35°50' W 121°54'1112.4
2017-Sep-16 23:09N 35°41' W 121°49'212.4
2017-Sep-16 23:00N 35°39' W 121°48'612.2
2017-Sep-16 22:29N 35°33' W 121°44'612.2
2017-Sep-16 22:00N 35°28' W 121°41'612.2
2017-Sep-16 21:30N 35°23' W 121°38'612.1
2017-Sep-16 21:00N 35°17' W 121°34'612.2
2017-Sep-16 20:30N 35°12' W 121°31'612.2
2017-Sep-16 20:00N 35°07' W 121°27'612.4
2017-Sep-16 19:30N 35°01' W 121°24'612.4
2017-Sep-16 19:00N 34°55' W 121°20'612.2
2017-Sep-16 18:30N 34°50' W 121°17'612.1
2017-Sep-16 18:00N 34°44' W 121°14'612.3
2017-Sep-16 17:30N 34°39' W 121°11'612.3
2017-Sep-16 17:00N 34°34' W 121°07'612.4
2017-Sep-16 16:30N 34°29' W 121°02'612.4
2017-Sep-16 16:00N 34°28' W 120°54'510.0
2017-Sep-16 15:30N 34°26' W 120°49'5 9.5
2017-Sep-16 14:59N 34°25' W 120°43'5 9.5
2017-Sep-16 14:29N 34°23' W 120°37'5 9.7
2017-Sep-16 14:00N 34°22' W 120°32'5 9.7
2017-Sep-16 13:30N 34°21' W 120°26'5 9.6
2017-Sep-16 13:00N 34°19' W 120°21'5 9.9
2017-Sep-16 12:30N 34°18' W 120°15'5 9.6
2017-Sep-16 12:00N 34°17' W 120°09'5 9.7
2017-Sep-16 11:30N 34°16' W 120°04'5 9.7
2017-Sep-16 11:00N 34°14' W 119°58'510.0
2017-Sep-16 10:30N 34°13' W 119°52'5 9.8
2017-Sep-16 10:00N 34°12' W 119°47'510.2
2017-Sep-16 09:29N 34°10' W 119°40'5 9.7
2017-Sep-16 09:00N 34°09' W 119°35'5 9.7
2017-Sep-16 08:30N 34°08' W 119°29'5 9.6
2017-Sep-16 08:00N 34°06' W 119°24'611.5
2017-Sep-16 07:30N 34°05' W 119°17'611.4
2017-Sep-16 07:00N 34°02' W 119°11'611.6
2017-Sep-16 06:30N 33°59' W 119°05'611.3
2017-Sep-16 05:59N 33°56' W 118°59'611.4
2017-Sep-16 05:30N 33°54' W 118°53'611.6
2017-Sep-16 05:00N 33°51' W 118°47'611.8
2017-Sep-16 04:27N 33°47' W 118°40'511.7
2017-Sep-16 04:00N 33°45' W 118°35'611.8
2017-Sep-16 03:30N 33°42' W 118°28'611.7
2017-Sep-16 03:00N 33°39' W 118°22'510.0
2017-Sep-16 02:30N 33°39' W 118°16'4 7.3
2017-Sep-16 02:00N 33°43' W 118°16'2 3.3
2017-Sep-16 01:30N 33°45' W 118°16'0 0.0
2017-Sep-16 00:56N 33°45' W 118°16'0 0.0
2017-Sep-16 00:20N 33°45' W 118°16'0 0.0
2017-Sep-15 23:56N 33°45' W 118°16'0 0.0
2017-Sep-15 23:26N 33°45' W 118°16'0 0.0
2017-Sep-15 22:50N 33°45' W 118°16'0 0.0
2017-Sep-15 22:14N 33°45' W 118°16'0 0.0
2017-Sep-15 21:56N 33°45' W 118°16'0 0.0
2017-Sep-15 21:26N 33°45' W 118°16'0 0.0
2017-Sep-15 20:56N 33°45' W 118°16'0 0.0
2017-Sep-15 20:20N 33°45' W 118°16'0 0.0
2017-Sep-15 19:44N 33°45' W 118°16'0 0.0
2017-Sep-15 19:26N 33°45' W 118°16'0 0.0
2017-Sep-15 18:56N 33°45' W 118°16'0 0.0
2017-Sep-15 18:26N 33°45' W 118°16'0 0.0
2017-Sep-15 17:56N 33°45' W 118°16'0 0.0
2017-Sep-15 17:26N 33°45' W 118°16'0 0.0
2017-Sep-15 16:38N 33°45' W 118°16'0 0.0
2017-Sep-15 16:26N 33°45' W 118°16'0 0.0
2017-Sep-15 15:56N 33°45' W 118°16'0 0.0
2017-Sep-15 15:08N 33°45' W 118°16'0 0.0
2017-Sep-15 14:38N 33°45' W 118°16'0 0.0
2017-Sep-15 14:26N 33°45' W 118°16'0 0.0
2017-Sep-15 13:56N 33°45' W 118°16'0 0.0
2017-Sep-15 13:26N 33°45' W 118°16'0 0.0
2017-Sep-15 12:56N 33°45' W 118°16'0 0.0
2017-Sep-15 11:56N 33°45' W 118°16'0 0.0
2017-Sep-15 11:26N 33°45' W 118°16'0 0.0
2017-Sep-15 10:44N 33°45' W 118°16'0 0.0
2017-Sep-15 10:20N 33°45' W 118°16'0 0.0
2017-Sep-15 09:50N 33°45' W 118°16'0 0.0
2017-Sep-15 09:26N 33°45' W 118°16'0 0.0
2017-Sep-15 08:56N 33°45' W 118°16'0 0.0
2017-Sep-15 08:26N 33°45' W 118°16'0 0.0
2017-Sep-15 07:56N 33°45' W 118°16'0 0.0
2017-Sep-15 07:26N 33°45' W 118°16'0 0.0
2017-Sep-15 06:56N 33°45' W 118°16'0 0.0
2017-Sep-15 06:26N 33°45' W 118°16'0 0.0
2017-Sep-15 05:50N 33°45' W 118°16'0 0.0
2017-Sep-15 05:26N 33°45' W 118°16'0 0.0
2017-Sep-15 04:56N 33°45' W 118°16'0 0.0
2017-Sep-15 04:26N 33°45' W 118°16'0 0.0
2017-Sep-15 03:56N 33°45' W 118°16'0 0.0
2017-Sep-15 03:26N 33°45' W 118°16'0 0.0
2017-Sep-15 02:56N 33°45' W 118°16'0 0.0
2017-Sep-15 02:26N 33°45' W 118°16'0 0.0
2017-Sep-15 01:56N 33°45' W 118°16'0 0.0
2017-Sep-15 01:26N 33°45' W 118°16'0 0.0
2017-Sep-15 00:56N 33°45' W 118°16'0 0.0
2017-Sep-15 00:26N 33°45' W 118°16'0 0.0
2017-Sep-14 23:56N 33°45' W 118°16'0 0.0
2017-Sep-14 23:20N 33°45' W 118°16'0 0.0
2017-Sep-14 22:56N 33°45' W 118°16'0 0.0
2017-Sep-14 22:14N 33°45' W 118°16'0 0.0
2017-Sep-14 21:50N 33°45' W 118°16'0 0.0
2017-Sep-14 21:26N 33°45' W 118°16'0 0.0
2017-Sep-14 20:44N 33°45' W 118°16'0 0.0
2017-Sep-14 20:26N 33°45' W 118°16'0 0.0
2017-Sep-14 19:56N 33°45' W 118°16'0 0.0
2017-Sep-14 19:26N 33°45' W 118°16'0 0.0
2017-Sep-14 18:56N 33°45' W 118°16'0 0.0
2017-Sep-14 18:26N 33°45' W 118°16'0 0.0
2017-Sep-14 17:56N 33°45' W 118°16'0 0.0
2017-Sep-14 17:20N 33°45' W 118°16'0 0.0
2017-Sep-14 16:56N 33°45' W 118°16'0 0.0
2017-Sep-14 16:26N 33°45' W 118°16'0 0.0
2017-Sep-14 15:56N 33°45' W 118°16'0 0.0
2017-Sep-14 15:26N 33°45' W 118°16'0 0.0
2017-Sep-14 14:56N 33°45' W 118°16'0 0.0
2017-Sep-14 14:26N 33°45' W 118°16'0 0.0
2017-Sep-14 13:47N 33°45' W 118°16'0 0.0
2017-Sep-14 13:29N 33°45' W 118°16'0 0.0
2017-Sep-14 12:59N 33°45' W 118°16'0 0.0
2017-Sep-14 12:17N 33°45' W 118°16'0 0.0
2017-Sep-14 11:47N 33°45' W 118°16'0 0.0
2017-Sep-14 11:26N 33°45' W 118°16'0 0.0
2017-Sep-14 10:50N 33°45' W 118°16'0 0.0
2017-Sep-14 10:20N 33°45' W 118°16'0 0.0
2017-Sep-14 09:50N 33°45' W 118°16'0 0.0
2017-Sep-14 09:26N 33°45' W 118°16'0 0.0
2017-Sep-14 08:50N 33°45' W 118°16'0 0.0
2017-Sep-14 08:26N 33°45' W 118°16'0 0.0
2017-Sep-14 07:56N 33°45' W 118°16'0 0.0
2017-Sep-14 07:26N 33°45' W 118°16'0 0.0
2017-Sep-14 06:56N 33°45' W 118°16'0 0.0
2017-Sep-14 06:20N 33°45' W 118°16'0 0.0
2017-Sep-14 05:50N 33°45' W 118°16'0 0.0
2017-Sep-14 05:29N 33°45' W 118°16'0 0.0
2017-Sep-14 04:50N 33°45' W 118°16'0 0.0
2017-Sep-14 04:26N 33°45' W 118°16'0 0.0
2017-Sep-14 03:56N 33°45' W 118°16'0 0.0
2017-Sep-14 03:23N 33°45' W 118°16'0 0.0
2017-Sep-14 02:59N 33°45' W 118°16'0 0.0
2017-Sep-14 02:26N 33°45' W 118°16'0 0.0
2017-Sep-14 01:56N 33°45' W 118°16'0 0.0
2017-Sep-14 01:26N 33°45' W 118°16'0 0.0
2017-Sep-14 00:56N 33°45' W 118°16'0 0.0
2017-Sep-14 00:26N 33°45' W 118°16'0 0.0
2017-Sep-13 23:56N 33°45' W 118°16'0 0.0
2017-Sep-13 23:14N 33°45' W 118°16'0 0.0
2017-Sep-13 22:56N 33°45' W 118°16'0 0.0
2017-Sep-13 22:20N 33°45' W 118°16'0 0.0
2017-Sep-13 21:56N 33°45' W 118°16'0 0.0
2017-Sep-13 21:26N 33°45' W 118°16'0 0.0
2017-Sep-13 20:56N 33°45' W 118°16'0 0.0
2017-Sep-13 20:26N 33°45' W 118°16'0 0.0
2017-Sep-13 19:59N 33°45' W 118°16'0 0.0
2017-Sep-13 19:26N 33°45' W 118°16'0 0.0
2017-Sep-13 18:50N 33°45' W 118°16'0 0.0
2017-Sep-13 18:26N 33°45' W 118°16'0 0.0
2017-Sep-13 17:50N 33°45' W 118°16'0 0.0
2017-Sep-13 17:26N 33°45' W 118°16'0 0.0
2017-Sep-13 16:44N 33°45' W 118°16'0 0.0
2017-Sep-13 15:56N 33°45' W 118°16'0 0.0
2017-Sep-13 15:14N 33°45' W 118°16'0 0.0
2017-Sep-13 14:59N 33°45' W 118°16'0 0.0
2017-Sep-13 14:26N 33°45' W 118°16'0 0.0
2017-Sep-13 13:53N 33°45' W 118°16'0 0.0
2017-Sep-13 13:26N 33°45' W 118°16'0 0.0
2017-Sep-13 12:56N 33°45' W 118°16'0 0.0
2017-Sep-13 12:29N 33°45' W 118°16'0 0.0
2017-Sep-13 11:59N 33°45' W 118°16'0 0.0
2017-Sep-13 11:26N 33°45' W 118°16'0 0.0
2017-Sep-13 10:50N 33°45' W 118°16'0 0.0
2017-Sep-13 10:29N 33°45' W 118°16'0 0.0
2017-Sep-13 09:56N 33°45' W 118°16'0 0.0
2017-Sep-13 09:26N 33°45' W 118°16'0 0.0
2017-Sep-13 08:56N 33°45' W 118°16'0 0.0
2017-Sep-13 08:14N 33°45' W 118°16'0 0.0
2017-Sep-13 07:56N 33°45' W 118°16'0 0.0
2017-Sep-13 07:29N 33°45' W 118°16'0 0.0
2017-Sep-13 06:56N 33°45' W 118°16'0 0.0
2017-Sep-13 06:26N 33°45' W 118°16'0 0.0
2017-Sep-13 05:56N 33°45' W 118°16'0 0.0
2017-Sep-13 05:26N 33°45' W 118°16'0 0.0
2017-Sep-13 04:59N 33°45' W 118°16'0 0.0
2017-Sep-13 04:20N 33°45' W 118°16'0 0.0
2017-Sep-13 03:59N 33°45' W 118°16'0 0.0
2017-Sep-13 03:26N 33°45' W 118°16'0 0.0
2017-Sep-13 02:59N 33°45' W 118°16'0 0.0
2017-Sep-13 02:26N 33°45' W 118°16'0 0.0
2017-Sep-13 01:59N 33°45' W 118°16'0 0.0
2017-Sep-13 01:29N 33°45' W 118°16'0 0.0
2017-Sep-13 00:59N 33°45' W 118°16'0 0.0
2017-Sep-13 00:29N 33°45' W 118°16'0 0.0
2017-Sep-12 23:59N 33°45' W 118°16'0 0.0
2017-Sep-12 23:29N 33°45' W 118°16'0 0.0
2017-Sep-12 22:59N 33°45' W 118°16'0 0.0
2017-Sep-12 22:29N 33°45' W 118°16'0 0.0
2017-Sep-12 21:59N 33°45' W 118°16'0 0.0
2017-Sep-12 21:26N 33°45' W 118°16'0 0.0
2017-Sep-12 20:56N 33°45' W 118°16'0 0.0
2017-Sep-12 20:26N 33°45' W 118°16'0 0.0
2017-Sep-12 19:59N 33°45' W 118°16'0 0.0
2017-Sep-12 19:26N 33°45' W 118°16'0 0.0
2017-Sep-12 18:59N 33°45' W 118°16'0 0.0
2017-Sep-12 18:26N 33°45' W 118°16'0 0.0
2017-Sep-12 17:44N 33°45' W 118°16'0 0.0
2017-Sep-12 17:14N 33°45' W 118°16'0 0.0
2017-Sep-12 16:56N 33°45' W 118°16'0 0.0
2017-Sep-12 16:29N 33°45' W 118°16'0 0.0
2017-Sep-12 15:59N 33°45' W 118°16'0 0.0
2017-Sep-12 15:29N 33°45' W 118°16'0 0.0
2017-Sep-12 14:59N 33°45' W 118°16'0 0.0
2017-Sep-12 14:29N 33°45' W 118°16'0 0.0
2017-Sep-12 13:59N 33°45' W 118°16'0 0.0
2017-Sep-12 13:30N 33°45' W 118°16'0 0.2
2017-Sep-12 13:00N 33°45' W 118°16'0 0.2
2017-Sep-12 12:30N 33°45' W 118°16'1 2.3
2017-Sep-12 12:00N 33°44' W 118°16'0 0.1
2017-Sep-12 11:30N 33°44' W 118°16'3 5.6
2017-Sep-12 11:00N 33°41' W 118°14'4 7.6
2017-Sep-12 10:30N 33°37' W 118°15'3 6.7
2017-Sep-12 10:00N 33°36' W 118°18'510.3
2017-Sep-12 09:30N 33°36' W 118°25'510.6
2017-Sep-12 09:00N 33°36' W 118°31'510.3
2017-Sep-12 08:30N 33°36' W 118°37'510.5
2017-Sep-12 08:00N 33°36' W 118°43'610.8
2017-Sep-12 07:29N 33°36' W 118°50'510.5
2017-Sep-12 07:00N 33°36' W 118°56'510.5
2017-Sep-12 06:30N 33°37' W 119°03'510.8
2017-Sep-12 06:00N 33°37' W 119°09'816.0
2017-Sep-12 05:30N 33°37' W 119°19'816.1
2017-Sep-12 05:01N 33°37' W 119°28'816.5
2017-Sep-12 04:31N 33°37' W 119°38'816.5
2017-Sep-12 04:00N 33°37' W 119°48'816.5
2017-Sep-12 03:30N 33°37' W 119°58'816.8
2017-Sep-12 03:00N 33°38' W 120°08'816.4
2017-Sep-12 02:31N 33°39' W 120°18'816.5
2017-Sep-12 02:01N 33°39' W 120°28'816.8
2017-Sep-12 01:31N 33°39' W 120°38'816.5
2017-Sep-12 01:00N 33°39' W 120°48'816.8
2017-Sep-12 00:30N 33°39' W 120°58'816.5
2017-Sep-12 00:00N 33°39' W 121°08'2 4.3
2017-Sep-11 23:26N 33°38' W 121°10'1 2.5
2017-Sep-11 23:01N 33°37' W 121°11'510.9
2017-Sep-11 22:30N 33°37' W 121°18'815.5
2017-Sep-11 22:00N 33°37' W 121°27'815.5
2017-Sep-11 21:30N 33°37' W 121°36'815.5
2017-Sep-11 21:00N 33°37' W 121°46'815.6
2017-Sep-11 20:30N 33°37' W 121°55'815.6
2017-Sep-11 20:00N 33°37' W 122°05'815.7
2017-Sep-11 19:30N 33°36' W 122°14'815.7
2017-Sep-11 19:00N 33°36' W 122°23'25217.5
2017-Sep-11 04:36N 34°31' W 127°20'219.4
2017-Sep-11 04:29N 34°32' W 127°22'1119.1
2017-Sep-11 03:56N 34°35' W 127°34'818.9
2017-Sep-11 03:30N 34°38' W 127°43'918.9
2017-Sep-11 03:00N 34°41' W 127°54'1019.0
2017-Sep-11 02:30N 34°45' W 128°05'  

Dump ship's entire track history